Share

Alpena, SD

Wessington Hills (KSDWESSI3) Elev 1683 ft | 44.08 °N, 98.57 °W | Change Station
Active Advisory: Fire Weather Watch

Current weather conditions updated 8 minutes ago

Clear
Clear
80.0 °F
Feels Like 79 °F
N
0.0
Wind Variable Wind from NW
Gusts 4.0 mph
Sunrise 6:41 AM
Sunset 8:24 PM
Moon Waning Gibbous

Tomorrow is forecast to be Much Cooler than today.

Pressure 29.85 in
Visibility 10.0 miles
Clouds Clear
Heat Index 79 °F
Dew Point 44 °F
Humidity 28%
Rainfall 0.00 in
Snow Depth Not available.
UV 1 out of 16
Pollen 10.60 out of 12
Air Quality Not available.
Flu Activity Sporadic
METAR KHON 202355Z AUTO 21005KT 10SM CLR 27/04 A2984 RMK AO2 SLP106 60000 T02670039 10272 20228 55013

More Conditions Fewer Conditions

Pressure 29.85 in
Visibility 10.0 miles
Clouds Clear
Heat Index 79 °F
Dew Point 44 °F
Humidity 28%
Rainfall 0.00 in
Snow Depth Not available.
UV 1 out of 16
Pollen 10.60 out of 12
Air Quality Not available.
Flu Activity Sporadic
METAR KHON 202355Z AUTO 21005KT 10SM CLR 27/04 A2984 RMK AO2 SLP106 60000 T02670039 10272 20228 55013

More Conditions Fewer Conditions

10-Day Weather Forecast

Almanac

Astronomy

Apr. 20, 2014 Rise Set
Actual Time 6:41 AM CDT 8:24 PM CDT
Civil Twilight 6:11 AM CDT 8:54 PM CDT
Nautical Twilight 5:34 AM CDT 9:32 PM CDT
Astronomical Twilight 4:54 AM CDT 10:12 PM CDT
Moon 1:09 AM CDT (4/20) 10:59 AM CDT (4/20)
Length of Visible Light 14h 43m
Length of Day
13h 42m
Tomorrow will be 2m 50s longer.
Waning Gibbous, 65% of the Moon is Illuminated
Today
Waning Gibbous
Apr 22
Last Quarter
Apr 29
New
May 6
First Quarter
May 14
Full

Today's Extremes

State Highs State Lows

Community

  • Easter Dance
    Easter Dance
  • spring skiing mount Baker WA
    spring skiing mount Baker WA
  • Morning Sun
    Morning Sun
  • Happy Easter
    Happy Easter
  • after rain
    after rain

WunderPhotos

Upload Photos

1,703,440 photos uploaded!

WunderBlogs® & News

Nearby

Snow Depth

Station Depth Elevation
North Rapid Creek 16 in 6130 ft
Blind Park 17 in 6890 ft

Coastal Water Temperatures

Place Temperature
No Stations Reporting

Earthquake Activity

City Distance Mag. Time & Date
No recent earthquake activity has been reported nearby.
Minimum magnitude displayed is 2.5.

Nearby Weather Stations

Station Location Temp. Heat Index Dew Point Humidity Wind Precip. Elev Updated Type
NonFedAWOS WESSSPRINGS , Wessington Springs, SD 79 °F 78 °F 43 °F 28% SSW  at  8 mph 0.00 in / hr 1545 ft 5:55 PM CDT MADIS
Wessington Hills, Wessington Springs, SD 80.0 °F 79 °F 44 °F 28% NW  at  0.0 mph 0.00 in / hr 1683 ft 6:59 PM CDT Normal
HADS JAMES RIVER AT HURON SD, Huron, SD 79 °F 77 °F - - North  at  - 0.00 in / hr 1220 ft 6:15 PM CDT MADIS

Show More Stations Show Fewer Stations

What do you think?

We're not finished. Please let us know what you like, what you don't like, and what you are still missing.